Time;durP1;ratioP1;P1;durP2;ratioP2;P2;SDS_P1;SDS_P2;PMS_P1;PMS_P2;Temp;Humidity;BMP_temperature;BMP_pressure;BME280_temperature;BME280_humidity;BME280_pressure;Samples;Min_cycle;Max_cycle;Signal;HPM_P1;HPM_P2
2022/12/24 00:03:20;;;;;;;3.40;0.70;;;;;;;10.07;100.00;98610.53;10442004;28;20053;-73
2022/12/24 00:08:22;;;;;;;2.08;0.95;;;;;;;10.32;100.00;98608.34;10461469;28;20546;-73
2022/12/24 00:13:24;;;;;;;5.10;1.20;;;;;;;10.42;100.00;98628.84;10461045;28;20044;-73
2022/12/24 00:18:26;;;;;;;2.60;0.70;;;;;;;10.36;100.00;98643.19;10463955;28;20391;-73
2022/12/24 00:23:29;;;;;;;1.08;0.70;;;;;;;10.36;100.00;98648.44;10461809;28;20449;-73
2022/12/24 00:28:30;;;;;;;1.88;0.75;;;;;;;10.17;100.00;98651.13;10460233;28;20153;-73
2022/12/24 00:33:32;;;;;;;1.58;0.85;;;;;;;10.00;100.00;98665.09;10461237;28;20405;-73
2022/12/24 00:38:34;;;;;;;4.32;0.60;;;;;;;9.91;100.00;98646.38;10465904;28;20064;-73
2022/12/24 00:43:36;;;;;;;1.92;0.77;;;;;;;9.86;100.00;98638.72;10459811;28;20442;-73
2022/12/24 00:48:37;;;;;;;2.10;0.70;;;;;;;9.70;100.00;98629.97;10458721;28;20064;-73
2022/12/24 00:53:40;;;;;;;2.90;1.10;;;;;;;9.59;100.00;98647.06;10441527;28;20049;-73
2022/12/24 00:58:42;;;;;;;1.65;0.85;;;;;;;9.72;100.00;98638.59;10463551;28;20544;-74
2022/12/24 01:03:43;;;;;;;3.33;1.50;;;;;;;9.90;100.00;98657.78;10452627;28;20581;-74
2022/12/24 01:08:49;;;;;;;4.00;1.27;;;;;;;9.74;100.00;98665.59;10448363;28;20045;-73
2022/12/24 01:13:50;;;;;;;6.47;2.03;;;;;;;9.69;100.00;98667.59;10467433;28;20106;-73
2022/12/24 01:18:52;;;;;;;4.03;1.25;;;;;;;9.89;100.00;98679.72;10465573;28;20120;-73
2022/12/24 01:23:54;;;;;;;3.20;1.33;;;;;;;10.09;98.38;98700.53;10451797;28;20052;-73
2022/12/24 01:28:56;;;;;;;3.80;0.93;;;;;;;10.07;98.16;98705.03;10447676;28;20041;-73
2022/12/24 01:33:58;;;;;;;5.47;1.10;;;;;;;10.04;100.00;98711.28;10467198;28;20127;-73
2022/12/24 01:38:59;;;;;;;7.68;1.20;;;;;;;9.87;100.00;98708.66;10465540;28;20501;-74
2022/12/24 01:44:25;;;;;;;5.07;1.35;;;;;;;9.81;100.00;98714.22;10470046;28;20402;-74
2022/12/24 01:49:40;;;;;;;5.95;1.40;;;;;;;9.70;100.00;98724.41;10466014;28;20194;-74
2022/12/24 01:54:56;;;;;;;5.57;1.53;;;;;;;9.73;100.00;98745.25;10447922;28;20048;-74
2022/12/24 02:00:03;;;;;;;6.23;1.77;;;;;;;9.68;100.00;98744.63;10465108;28;20469;-73
2022/12/24 02:05:14;;;;;;;3.78;1.45;;;;;;;9.58;100.00;98752.94;10467429;28;20045;-73
2022/12/24 02:10:16;;;;;;;7.65;1.35;;;;;;;9.59;100.00;98752.00;10463841;28;20037;-72
2022/12/24 02:15:19;;;;;;;4.78;1.60;;;;;;;9.49;100.00;98755.16;10463502;28;20109;-72
2022/12/24 02:20:51;;;;;;;3.78;1.23;;;;;;;9.51;100.00;98756.75;10445362;28;20501;-72
2022/12/24 02:26:15;;;;;;;5.55;1.00;;;;;;;9.63;100.00;98770.22;10446119;28;20056;-72
2022/12/24 02:31:26;;;;;;;6.85;1.23;;;;;;;9.88;98.51;98783.88;10463724;28;20124;-72
2022/12/24 02:36:38;;;;;;;2.45;0.90;;;;;;;9.85;100.00;98784.84;10443998;28;20068;-72
2022/12/24 02:47:08;;;;;;;8.35;1.40;;;;;;;9.67;100.00;98800.66;10459584;22;20049;-71
2022/12/24 02:52:46;;;;;;;5.35;1.55;;;;;;;9.59;100.00;98799.22;10416659;28;20509;-71
2022/12/24 02:57:57;;;;;;;5.18;1.23;;;;;;;9.71;100.00;98807.44;10330676;28;20061;-71
2022/12/24 03:03:28;;;;;;;4.55;1.10;;;;;;;9.67;100.00;98817.25;10331406;28;20109;-71
2022/12/24 03:09:04;;;;;;;5.22;0.90;;;;;;;9.58;100.00;98823.78;10314302;28;20042;-71
2022/12/24 03:14:06;;;;;;;;;;;;;;;9.74;100.00;98844.03;10321178;28;20504;-71
2022/12/24 03:19:08;;;;;;;5.65;1.90;;;;;;;9.69;100.00;98846.00;10330870;28;19926;-71
2022/12/24 03:24:10;;;;;;;5.75;0.93;;;;;;;9.76;100.00;98842.19;10329843;28;20058;-71
2022/12/24 03:29:12;;;;;;;4.88;1.20;;;;;;;9.65;100.00;98850.59;10351453;28;20049;-71
2022/12/24 03:34:14;;;;;;;6.90;1.13;;;;;;;9.64;100.00;98848.00;10415547;28;20045;-71
2022/12/24 03:39:16;;;;;;;4.47;0.98;;;;;;;9.75;100.00;98857.09;10416308;28;20041;-72
2022/12/24 03:44:18;;;;;;;3.22;0.65;;;;;;;9.77;100.00;98860.47;10415897;28;20507;-71
2022/12/24 03:49:20;;;;;;;2.85;0.80;;;;;;;9.58;100.00;98859.66;10415689;28;20041;-71
2022/12/24 03:54:21;;;;;;;5.53;1.00;;;;;;;9.74;100.00;98863.28;10416610;28;20048;-71
2022/12/24 03:59:23;;;;;;;4.22;0.90;;;;;;;9.68;100.00;98875.81;10416031;28;20064;-71
2022/12/24 04:04:25;;;;;;;4.47;0.98;;;;;;;9.71;100.00;98870.44;10414966;28;20046;-71
2022/12/24 04:09:26;;;;;;;3.00;1.00;;;;;;;9.64;100.00;98877.72;10414505;28;20077;-71
2022/12/24 04:14:28;;;;;;;3.10;0.90;;;;;;;9.59;99.65;98888.44;10396905;28;20049;-71
2022/12/24 04:19:30;;;;;;;2.65;0.70;;;;;;;9.84;96.68;98897.81;10414483;28;20045;-70
2022/12/24 04:24:32;;;;;;;2.55;0.77;;;;;;;9.90;94.71;98883.53;10414523;28;20087;-70
2022/12/24 04:29:34;;;;;;;2.63;0.80;;;;;;;9.96;93.06;98902.47;10414377;28;20068;-71
2022/12/24 04:34:36;;;;;;;2.92;0.93;;;;;;;10.11;90.57;98917.50;10418875;28;20048;-70
2022/12/24 04:39:37;;;;;;;4.60;1.20;;;;;;;10.00;90.71;98924.16;10404151;28;20392;-70
2022/12/24 04:44:39;;;;;;;5.45;1.17;;;;;;;10.10;89.11;98928.06;10422245;28;20045;-70
2022/12/24 04:49:41;;;;;;;4.38;1.10;;;;;;;10.09;89.18;98942.97;10404561;28;20392;-70
2022/12/24 04:54:42;;;;;;;5.50;1.15;;;;;;;10.07;89.25;98951.84;10422124;28;20045;-70
2022/12/24 04:59:44;;;;;;;4.65;1.15;;;;;;;9.98;89.77;98950.50;10421363;28;20514;-70
2022/12/24 05:04:46;;;;;;;4.60;1.25;;;;;;;9.83;92.91;98964.34;10420969;28;20645;-71
2022/12/24 05:09:48;;;;;;;6.90;1.35;;;;;;;9.63;95.17;98985.38;10420624;28;20041;-70
2022/12/24 05:14:49;;;;;;;4.07;1.35;;;;;;;9.71;94.75;98989.38;10421366;28;20041;-71
2022/12/24 05:19:51;;;;;;;4.18;0.90;;;;;;;9.74;93.52;99001.47;10402710;28;20042;-70
2022/12/24 05:30:13;;;;;;;3.78;1.50;;;;;;;9.56;96.08;99019.75;10420011;28;20037;-70
2022/12/24 05:35:14;;;;;;;4.43;1.50;;;;;;;9.59;95.91;99019.59;10420522;28;20053;-70
2022/12/24 05:40:17;;;;;;;4.18;1.10;;;;;;;9.49;95.10;99013.06;10419921;28;20462;-71
2022/12/24 05:45:18;;;;;;;4.38;1.17;;;;;;;9.30;97.04;99020.03;10419351;28;20048;-71
2022/12/24 05:50:20;;;;;;;2.55;1.10;;;;;;;9.46;94.02;99021.06;10419863;28;20152;-70
2022/12/24 05:55:22;;;;;;;4.75;1.33;;;;;;;9.54;92.46;99023.34;10419847;28;20065;-70
2022/12/24 06:00:23;;;;;;;5.72;1.40;;;;;;;9.52;91.64;99039.19;10419055;28;20510;-71
2022/12/24 06:05:25;;;;;;;3.55;1.08;;;;;;;9.33;93.41;99046.97;10419625;28;20045;-71
2022/12/24 06:10:27;;;;;;;5.78;1.60;;;;;;;9.24;94.27;99067.47;10419578;28;20053;-70
2022/12/24 06:15:28;;;;;;;7.93;1.42;;;;;;;9.18;95.83;99086.94;10418412;28;20041;-70
2022/12/24 06:20:30;;;;;;;5.13;1.50;;;;;;;9.19;95.58;99103.53;10400372;28;20041;-70
2022/12/24 06:25:33;;;;;;;8.13;1.58;;;;;;;9.06;96.16;99093.53;10418046;28;20045;-71
2022/12/24 06:30:35;;;;;;;5.28;1.35;;;;;;;9.06;95.32;99105.78;10417698;28;20046;-71
2022/12/24 06:35:36;;;;;;;4.25;1.40;;;;;;;9.31;90.99;99122.25;10417886;28;20092;-70
2022/12/24 06:40:39;;;;;;;6.82;1.50;;;;;;;9.26;89.40;99120.72;10417501;28;20037;-71
2022/12/24 06:45:46;;;;;;;4.57;1.05;;;;;;;9.32;87.36;99131.81;10417591;28;20049;-70
2022/12/24 06:50:47;;;;;;;5.03;1.23;;;;;;;9.42;85.64;99126.19;10417126;28;20041;-70
2022/12/24 06:55:49;;;;;;;3.10;1.02;;;;;;;9.47;83.54;99148.66;10416659;28;20465;-69
2022/12/24 07:00:51;;;;;;;4.60;1.08;;;;;;;9.60;81.73;99149.88;10416896;28;20116;-69
2022/12/24 07:05:53;;;;;;;4.85;1.30;;;;;;;9.63;80.56;99169.03;10416896;28;20096;-69
2022/12/24 07:10:54;;;;;;;5.75;1.90;;;;;;;9.68;79.13;99169.69;10416382;28;20041;-71
2022/12/24 07:15:57;;;;;;;8.30;1.83;;;;;;;9.64;78.93;99170.75;10416288;28;20064;-70
2022/12/24 07:21:00;;;;;;;9.43;1.48;;;;;;;9.48;79.43;99174.00;10416255;28;20096;-70
2022/12/24 07:26:03;;;;;;;6.68;1.67;;;;;;;9.47;77.47;99187.16;10398916;28;20049;-70
2022/12/24 07:31:05;;;;;;;5.70;1.55;;;;;;;9.33;78.68;99195.59;10416009;28;20041;-69
2022/12/24 07:36:13;;;;;;;7.97;1.60;;;;;;;9.38;77.34;99204.13;10416963;28;20050;-71
2022/12/24 07:41:15;;;;;;;7.07;1.55;;;;;;;9.38;77.30;99216.41;10416366;28;20068;-70
2022/12/24 07:46:16;;;;;;;8.00;1.50;;;;;;;9.39;77.10;99226.84;10415905;28;20045;-70
2022/12/24 07:51:18;;;;;;;5.40;1.45;;;;;;;9.44;76.81;99234.53;10415270;28;20042;-70
2022/12/24 07:56:20;;;;;;;5.75;1.45;;;;;;;9.35;78.67;99241.84;10415905;28;20099;-70
2022/12/24 08:01:21;;;;;;;4.10;1.23;;;;;;;9.37;79.28;99256.66;10415531;28;20052;-70
2022/12/24 08:06:23;;;;;;;5.55;1.25;;;;;;;9.30;81.32;99256.06;10398486;28;20053;-70
2022/12/24 08:11:25;;;;;;;4.95;1.23;;;;;;;9.38;82.85;99261.84;10406211;28;20053;-70
2022/12/24 08:16:27;;;;;;;2.47;0.90;;;;;;;9.25;85.15;99268.47;10405705;28;20080;-71
2022/12/24 08:21:29;;;;;;;3.03;1.08;;;;;;;9.19;86.02;99282.69;10422805;28;20092;-69
2022/12/24 08:26:30;;;;;;;7.22;1.20;;;;;;;9.09;87.39;99289.19;10405224;28;20057;-70
2022/12/24 08:31:35;;;;;;;5.30;1.63;;;;;;;8.94;88.82;99298.50;10422737;28;20384;-69
2022/12/24 08:36:37;;;;;;;3.95;1.00;;;;;;;9.28;85.33;99307.69;10405030;28;20449;-69
2022/12/24 08:41:39;;;;;;;3.42;1.30;;;;;;;9.16;86.39;99297.66;10404859;28;20041;-69
2022/12/24 08:46:40;;;;;;;4.97;1.50;;;;;;;9.26;85.67;99318.25;10422543;22;20045;-75
2022/12/24 08:51:42;;;;;;;6.60;1.60;;;;;;;9.32;85.57;99325.88;10450994;28;20132;-74
2022/12/24 08:56:44;;;;;;;6.78;2.13;;;;;;;9.23;84.72;99336.72;10406667;28;20096;-76
2022/12/24 09:01:46;;;;;;;5.68;1.90;;;;;;;9.41;83.51;99350.91;10424122;28;20099;-75
2022/12/24 09:06:48;;;;;;;7.53;1.95;;;;;;;9.40;82.66;99364.09;10406098;28;20046;-76
2022/12/24 09:11:50;;;;;;;4.70;1.73;;;;;;;9.64;79.85;99373.66;10405638;28;20038;-74
2022/12/24 09:16:52;;;;;;;7.20;1.92;;;;;;;9.71;79.79;99362.00;10422874;28;20116;-74
2022/12/24 09:21:53;;;;;;;6.75;2.05;;;;;;;9.72;78.72;99383.84;10404146;28;20068;-75
2022/12/24 09:26:56;;;;;;;8.13;1.83;;;;;;;9.83;76.68;99381.69;10421842;28;20145;-74
2022/12/24 09:31:59;;;;;;;5.70;2.13;;;;;;;10.05;73.88;99392.19;10404046;28;20056;-74
2022/12/24 09:37:01;;;;;;;6.40;1.60;;;;;;;10.11;73.48;99397.19;10422476;28;20038;-74
2022/12/24 09:42:28;;;;;;;9.18;2.17;;;;;;;10.14;72.78;99407.59;10438998;28;20061;-75
2022/12/24 09:47:40;;;;;;;11.68;3.13;;;;;;;10.32;73.56;99419.16;10448214;28;20498;-74
2022/12/24 09:52:45;;;;;;;8.40;1.55;;;;;;;10.52;70.62;99429.69;10463614;28;20072;-75
2022/12/24 09:57:50;;;;;;;10.23;1.73;;;;;;;10.32;71.56;99440.16;10362383;28;20061;-76
2022/12/24 10:02:52;;;;;;;7.20;1.40;;;;;;;10.40;71.68;99438.06;10361812;28;20141;-75
2022/12/24 10:08:08;;;;;;;10.63;2.10;;;;;;;10.32;71.40;99448.03;10379996;28;20120;-74
2022/12/24 10:13:37;;;;;;;7.30;1.75;;;;;;;10.24;72.20;99457.97;10416370;28;20167;-75
2022/12/24 10:18:53;;;;;;;10.88;2.22;;;;;;;10.25;71.10;99462.34;10443408;28;20487;-76
2022/12/24 10:24:02;;;;;;;;;;;;;;;10.11;72.22;99466.31;10462674;28;20045;-74
2022/12/24 10:29:40;;;;;;;9.05;2.38;;;;;;;10.05;73.33;99468.34;10444625;28;19921;-74
2022/12/24 10:34:45;;;;;;;7.88;1.95;;;;;;;10.16;72.78;99467.91;10443054;28;20057;-75
2022/12/24 10:39:47;;;;;;;8.93;2.47;;;;;;;10.22;72.55;99475.53;10441571;28;20041;-75
2022/12/24 10:44:59;;;;;;;7.47;1.88;;;;;;;10.35;71.25;99477.66;10458920;28;20103;-75
2022/12/24 10:50:30;;;;;;;7.47;2.00;;;;;;;10.20;72.24;99472.97;10459961;28;20376;-74
2022/12/24 10:55:38;;;;;;;6.70;1.63;;;;;;;10.22;72.94;99478.16;10494337;28;20376;-74
2022/12/24 11:00:41;;;;;;;5.68;2.03;;;;;;;10.32;73.90;99500.59;10492535;28;20088;-75
2022/12/24 11:05:42;;;;;;;6.88;2.05;;;;;;;10.50;73.10;99499.84;10493754;28;20037;-75
2022/12/24 11:10:56;;;;;;;7.68;1.90;;;;;;;10.42;74.64;99512.44;10492663;28;20052;-74
2022/12/24 11:16:18;;;;;;;7.28;1.60;;;;;;;10.18;76.92;99501.09;10494535;28;20110;-76
2022/12/24 11:21:23;;;;;;;7.20;1.50;;;;;;;10.20;76.56;99512.38;10494865;28;20041;-76
2022/12/24 11:26:28;;;;;;;5.13;1.50;;;;;;;10.31;76.77;99512.00;10493975;28;20064;-75
2022/12/24 11:31:31;;;;;;;7.18;1.80;;;;;;;10.15;77.99;99521.34;10493534;28;20048;-75
2022/12/24 11:36:33;;;;;;;4.57;1.27;;;;;;;10.15;79.62;99527.47;10493570;28;20044;-75
2022/12/24 11:41:36;;;;;;;5.47;1.23;;;;;;;10.14;80.70;99533.63;10493867;28;20075;-75
2022/12/24 11:46:41;;;;;;;5.93;1.38;;;;;;;10.08;81.92;99539.09;10494334;28;20448;-75
2022/12/24 11:52:08;;;;;;;6.53;1.90;;;;;;;10.03;82.42;99544.53;10492768;28;20082;-75
2022/12/24 11:57:15;;;;;;;6.20;2.00;;;;;;;10.13;82.26;99539.78;10490781;28;20049;-73
2022/12/24 12:02:32;;;;;;;4.97;2.17;;;;;;;10.31;81.85;99554.91;10492200;28;20036;-74
2022/12/24 12:07:36;;;;;;;5.25;1.38;;;;;;;10.33;80.90;99553.06;10464192;28;20037;-76
2022/12/24 12:12:42;;;;;;;5.95;1.20;;;;;;;10.17;82.33;99558.91;10463265;28;20461;-74
2022/12/24 12:18:10;;;;;;;4.65;1.60;;;;;;;10.33;79.93;99553.06;10464398;28;20045;-74
2022/12/24 12:23:23;;;;;;;4.72;1.58;;;;;;;10.15;81.40;99568.63;10466542;28;20399;-75
2022/12/24 12:28:31;;;;;;;3.28;1.02;;;;;;;10.37;79.69;99572.19;10465100;28;20380;-75
2022/12/24 12:34:10;;;;;;;5.00;1.52;;;;;;;10.38;79.66;99566.03;10463971;28;20048;-75
2022/12/24 12:39:12;;;;;;;3.90;1.30;;;;;;;10.45;80.72;99585.03;10458370;28;20103;-75
2022/12/24 12:44:41;;;;;;;4.38;1.15;;;;;;;10.40;81.19;99579.09;10459260;28;20049;-75
2022/12/24 12:49:51;;;;;;;4.78;1.77;;;;;;;10.38;82.02;99586.19;10460524;28;20100;-74
2022/12/24 12:55:01;;;;;;;4.35;1.75;;;;;;;10.40;81.55;99579.94;10460546;28;20060;-75
2022/12/24 13:00:14;;;;;;;3.58;1.20;;;;;;;10.36;82.60;99570.50;10457626;28;20395;-76
2022/12/24 13:05:28;;;;;;;4.07;1.20;;;;;;;10.39;82.35;99575.59;10481960;28;20102;-75
2022/12/24 13:11:04;;;;;;;3.65;1.15;;;;;;;10.59;81.41;99575.69;10462543;28;20091;-77
2022/12/24 13:16:12;;;;;;;4.35;1.42;;;;;;;10.72;79.77;99583.97;10462502;28;20096;-75
2022/12/24 13:21:29;;;;;;;4.15;1.33;;;;;;;10.58;79.99;99584.50;10465028;28;20045;-74
2022/12/24 13:26:31;;;;;;;5.15;1.92;;;;;;;10.74;78.48;99583.91;10504439;28;20486;-75
2022/12/24 13:31:33;;;;;;;4.75;1.58;;;;;;;10.69;78.38;99581.44;10505505;28;20068;-73
2022/12/24 13:37:04;;;;;;;7.63;1.92;;;;;;;10.69;78.71;99589.34;10501586;28;20052;-75
2022/12/24 13:42:05;;;;;;;4.28;1.40;;;;;;;10.69;78.69;99591.09;10463107;28;20111;-76
2022/12/24 13:47:22;;;;;;;5.93;1.85;;;;;;;10.74;78.49;99603.16;10461864;28;20068;-76
2022/12/24 13:52:33;;;;;;;3.70;1.10;;;;;;;10.62;79.04;99606.25;10461011;28;20033;-77
2022/12/24 13:57:44;;;;;;;4.30;1.27;;;;;;;10.56;78.48;99606.50;10461627;28;20041;-76
2022/12/24 14:02:55;;;;;;;5.30;1.48;;;;;;;10.41;78.66;99607.09;10461169;28;20041;-75
2022/12/24 14:07:59;;;;;;;3.67;1.42;;;;;;;10.42;78.06;99609.66;10462616;28;20051;-76
2022/12/24 14:13:00;;;;;;;3.35;1.30;;;;;;;10.32;78.79;99613.56;10460648;28;20041;-75
2022/12/24 14:18:03;;;;;;;4.20;1.20;;;;;;;10.26;79.83;99621.63;10461857;28;20140;-75
2022/12/24 14:23:06;;;;;;;4.65;1.63;;;;;;;10.30;79.65;99629.34;10460126;28;20135;-75
2022/12/24 14:28:17;;;;;;;3.78;1.10;;;;;;;10.21;79.64;99644.56;10454994;28;20041;-76
2022/12/24 14:33:30;;;;;;;4.20;1.20;;;;;;;10.19;79.54;99649.03;10454753;28;20342;-75
2022/12/24 14:38:33;;;;;;;4.05;1.75;;;;;;;9.97;80.85;99654.19;10459225;28;20052;-75
2022/12/24 14:43:51;;;;;;;4.15;1.27;;;;;;;9.81;82.68;99659.97;10462765;28;20095;-75
2022/12/24 14:49:24;;;;;;;5.97;1.27;;;;;;;9.82;82.55;99666.91;10446447;28;20049;-75
2022/12/24 14:54:42;;;;;;;3.10;1.30;;;;;;;9.72;83.61;99672.56;10408108;22;20041;-76
2022/12/24 14:59:49;;;;;;;4.35;1.20;;;;;;;9.74;83.92;99689.97;10395697;28;20046;-75
2022/12/24 15:05:09;;;;;;;2.20;1.17;;;;;;;9.64;83.99;99688.53;10377690;28;20046;-75
2022/12/24 15:10:43;;;;;;;3.50;1.23;;;;;;;9.56;84.54;99686.19;10378209;28;20101;-74
2022/12/24 15:15:46;;;;;;;4.15;1.33;;;;;;;9.60;83.86;99705.31;10294080;28;20101;-74
2022/12/24 15:20:57;;;;;;;4.22;1.27;;;;;;;9.67;85.10;99709.44;10297400;28;20066;-75
2022/12/24 15:26:17;;;;;;;2.58;1.42;;;;;;;9.59;86.87;99708.84;10292495;28;20055;-75
2022/12/24 15:31:21;;;;;;;6.95;1.80;;;;;;;9.62;86.18;99716.63;10292981;28;20138;-75
2022/12/24 15:36:33;;;;;;;4.00;1.30;;;;;;;9.62;85.02;99721.88;10260897;28;20047;-75
2022/12/24 15:42:12;;;;;;;4.03;1.40;;;;;;;9.44;85.54;99730.34;10303087;28;20134;-74
2022/12/24 15:47:04;;;;;;;3.40;1.65;;;;;;;9.50;83.86;99733.59;10301084;28;20116;-75
2022/12/24 15:52:16;;;;;;;3.65;1.45;;;;;;;9.35;84.09;99729.72;10364153;28;20521;-75
2022/12/24 15:57:28;;;;;;;6.47;1.40;;;;;;;9.45;83.16;99738.16;10383481;28;20479;-75
2022/12/24 16:02:37;;;;;;;4.25;1.23;;;;;;;9.60;80.73;99753.38;10385555;28;20543;-75
2022/12/24 16:13:00;;;;;;;5.63;1.60;;;;;;;9.10;83.75;99784.69;10381437;28;20469;-75
2022/12/24 16:18:02;;;;;;;4.15;1.40;;;;;;;8.79;89.74;99784.72;10381352;28;20050;-76
2022/12/24 16:23:03;;;;;;;4.07;1.35;;;;;;;8.41;93.85;99788.41;10387108;28;20064;-75
2022/12/24 16:28:10;;;;;;;3.15;1.42;;;;;;;8.20;95.54;99794.19;10383248;28;20054;-75
2022/12/24 16:33:19;;;;;;;3.67;1.42;;;;;;;8.17;96.62;99796.88;10384743;28;20038;-75
2022/12/24 16:38:22;;;;;;;3.20;1.35;;;;;;;8.15;97.07;99810.00;10383473;28;20036;-75
2022/12/24 16:48:47;;;;;;;3.53;1.30;;;;;;;7.70;99.96;99823.31;10385071;28;20048;-75
2022/12/24 16:53:49;;;;;;;2.95;1.25;;;;;;;7.50;100.00;99817.69;10383086;28;20042;-75
2022/12/24 16:58:51;;;;;;;4.30;1.90;;;;;;;7.48;100.00;99830.81;10382372;28;20046;-74
2022/12/24 17:03:52;;;;;;;3.50;2.28;;;;;;;7.36;100.00;99836.28;10391416;28;20036;-74
2022/12/24 17:08:54;;;;;;;5.22;2.50;;;;;;;7.64;100.00;99831.28;10400709;28;20096;-75
2022/12/24 17:13:56;;;;;;;2.83;2.17;;;;;;;7.36;100.00;99832.81;10386697;28;20045;-75
2022/12/24 17:18:58;;;;;;;4.15;2.25;;;;;;;7.02;100.00;99854.44;10386714;28;20073;-75
2022/12/24 17:24:00;;;;;;;6.88;2.60;;;;;;;6.97;100.00;99867.59;10424720;28;20037;-75
2022/12/24 17:29:04;;;;;;;4.20;2.00;;;;;;;7.32;100.00;99859.03;10410848;28;20045;-75
2022/12/24 17:34:05;;;;;;;5.07;4.57;;;;;;;7.30;100.00;99854.72;10423843;28;20111;-75
2022/12/24 17:39:07;;;;;;;4.93;4.25;;;;;;;6.82;100.00;99860.91;10421025;28;20144;-75
2022/12/24 17:44:13;;;;;;;7.10;4.50;;;;;;;6.91;100.00;99852.03;10421131;28;20048;-75
2022/12/24 17:49:15;;;;;;;7.40;6.68;;;;;;;6.81;100.00;99861.78;10423001;28;20059;-75
2022/12/24 17:54:17;;;;;;;8.70;7.28;;;;;;;6.60;100.00;99870.06;10425287;28;20037;-75
2022/12/24 17:59:19;;;;;;;9.38;6.35;;;;;;;6.69;100.00;99871.63;10423033;28;20060;-75
2022/12/24 18:04:21;;;;;;;6.50;5.90;;;;;;;6.62;100.00;99886.53;10422349;28;20095;-77
2022/12/24 18:09:22;;;;;;;4.78;4.25;;;;;;;6.22;100.00;99902.03;10421882;28;20045;-75
2022/12/24 18:14:24;;;;;;;7.25;5.38;;;;;;;6.16;100.00;99900.38;10423869;28;20037;-75
2022/12/24 18:19:26;;;;;;;9.88;8.88;;;;;;;5.93;100.00;99903.34;10419728;28;20058;-75
2022/12/24 18:24:27;;;;;;;7.68;5.80;;;;;;;5.81;100.00;99890.44;10420215;28;20048;-76
2022/12/24 18:29:29;;;;;;;11.50;6.80;;;;;;;5.53;100.00;99908.22;10420481;28;20038;-76
2022/12/24 18:34:32;;;;;;;8.30;7.50;;;;;;;5.29;100.00;99904.19;10424088;28;20486;-76
2022/12/24 18:39:34;;;;;;;14.32;12.98;;;;;;;5.25;100.00;99910.31;10421158;28;20049;-76
2022/12/24 18:44:36;;;;;;;13.75;12.50;;;;;;;5.09;100.00;99903.53;10420343;28;20045;-76
2022/12/24 18:49:38;;;;;;;14.23;13.02;;;;;;;4.89;100.00;99898.56;10419709;28;20049;-76
2022/12/24 18:54:40;;;;;;;9.18;4.97;;;;;;;5.24;100.00;99911.19;10420407;28;20071;-75
2022/12/24 18:59:41;;;;;;;7.57;2.60;;;;;;;5.90;100.00;99916.41;10420888;28;20099;-76
2022/12/24 19:04:43;;;;;;;9.35;2.90;;;;;;;6.51;100.00;99912.00;10420481;28;20101;-75
2022/12/24 19:09:47;;;;;;;6.97;2.75;;;;;;;6.58;100.00;99911.84;10420058;28;20046;-76
2022/12/24 19:14:49;;;;;;;5.78;1.85;;;;;;;6.90;98.58;99918.22;10424891;28;20042;-75
2022/12/24 19:19:51;;;;;;;4.25;1.95;;;;;;;6.71;99.87;99935.16;10430816;28;20376;-76
2022/12/24 19:24:53;;;;;;;5.65;1.98;;;;;;;6.68;99.00;99935.19;10427416;28;20072;-75
2022/12/24 19:29:54;;;;;;;9.40;2.22;;;;;;;6.96;97.89;99938.19;10425932;28;20069;-75
2022/12/24 19:34:56;;;;;;;7.18;2.40;;;;;;;7.11;97.60;99937.03;10428130;28;20056;-75
2022/12/24 19:39:58;;;;;;;5.97;2.47;;;;;;;7.32;95.40;99947.06;10429156;28;20045;-76
2022/12/24 19:45:00;;;;;;;4.10;2.25;;;;;;;7.27;95.78;99954.16;10426412;28;20053;-75
2022/12/24 19:50:02;;;;;;;10.48;2.28;;;;;;;7.28;96.33;99961.94;10425135;28;20049;-75
2022/12/24 19:55:05;;;;;;;7.30;2.58;;;;;;;7.41;95.65;99954.72;10425772;28;20037;-76
2022/12/24 20:00:09;;;;;;;4.43;2.35;;;;;;;7.45;96.06;99966.00;10425829;28;20453;-77
2022/12/24 20:05:14;;;;;;;6.25;2.38;;;;;;;7.42;95.76;99973.88;10430170;28;20044;-75
2022/12/24 20:10:16;;;;;;;5.35;2.20;;;;;;;7.20;97.10;99982.16;10427260;28;20049;-76
2022/12/24 20:15:18;;;;;;;7.85;2.17;;;;;;;7.23;97.46;99995.16;10422532;28;20044;-75
2022/12/24 20:20:19;;;;;;;6.60;2.00;;;;;;;7.24;98.02;100001.25;10424612;28;20056;-75
2022/12/24 20:25:21;;;;;;;5.53;2.30;;;;;;;7.16;97.19;100008.38;10426505;28;20048;-75
2022/12/24 20:30:24;;;;;;;5.80;2.55;;;;;;;6.82;99.25;100003.75;10424163;28;20116;-75
2022/12/24 20:35:25;;;;;;;10.73;2.78;;;;;;;6.94;99.77;100005.28;10424870;28;20037;-75
2022/12/24 20:40:27;;;;;;;8.15;2.45;;;;;;;6.84;99.67;100007.19;10425956;28;20041;-75
2022/12/24 20:45:29;;;;;;;7.30;2.38;;;;;;;7.02;98.31;100006.88;10427241;28;20042;-74
2022/12/24 20:50:34;;;;;;;4.72;1.98;;;;;;;6.97;98.97;100007.84;10424973;28;20038;-76
2022/12/24 20:55:36;;;;;;;9.88;2.33;;;;;;;6.88;100.00;100014.09;10423527;28;20080;-75
2022/12/24 21:00:38;;;;;;;9.27;2.10;;;;;;;7.20;99.42;100010.03;10422713;28;20474;-75
2022/12/24 21:05:40;;;;;;;5.22;1.98;;;;;;;7.15;99.64;100006.66;10423287;28;20133;-75
2022/12/24 21:10:46;;;;;;;8.68;2.38;;;;;;;7.16;99.61;100008.38;10425954;28;20051;-75
2022/12/24 21:15:48;;;;;;;9.93;2.20;;;;;;;7.24;99.43;100020.41;10421695;28;20049;-75
2022/12/24 21:20:49;;;;;;;6.35;2.03;;;;;;;7.26;98.62;100015.16;10422606;28;20491;-76
2022/12/24 21:25:59;;;;;;;7.50;2.45;;;;;;;7.26;98.45;100015.16;10421409;28;20091;-75
2022/12/24 21:31:09;;;;;;;7.75;2.50;;;;;;;7.21;98.73;100019.59;10426816;28;20513;-75
2022/12/24 21:36:12;;;;;;;9.00;2.90;;;;;;;7.38;97.52;100016.69;10421163;28;20048;-75
2022/12/24 21:41:17;;;;;;;8.10;2.50;;;;;;;7.28;98.26;100026.44;10419915;28;20076;-75
2022/12/24 21:46:23;;;;;;;9.50;2.83;;;;;;;7.20;98.42;100025.72;10419987;28;20406;-75
2022/12/24 21:51:26;;;;;;;6.35;2.75;;;;;;;7.11;99.08;100047.66;10423983;28;20037;-75
2022/12/24 21:56:28;;;;;;;7.95;2.40;;;;;;;7.04;99.23;100044.31;10423389;28;20050;-74
2022/12/24 22:01:30;;;;;;;15.63;2.97;;;;;;;6.83;100.00;100047.28;10420674;28;20049;-74
2022/12/24 22:11:52;;;;;;;6.88;2.65;;;;;;;6.88;99.63;100058.50;10422138;28;20045;-74
2022/12/24 22:16:55;;;;;;;10.77;2.58;;;;;;;6.70;100.00;100049.22;10423152;28;20048;-76
2022/12/24 22:21:57;;;;;;;11.15;2.60;;;;;;;6.67;100.00;100062.31;10421652;28;20060;-74
2022/12/24 22:26:59;;;;;;;7.10;2.80;;;;;;;6.63;100.00;100086.75;10421155;28;20093;-74
2022/12/24 22:32:01;;;;;;;10.18;2.10;;;;;;;6.65;100.00;100074.56;10419243;28;20045;-75
2022/12/24 22:37:02;;;;;;;6.40;2.90;;;;;;;6.64;100.00;100078.06;10422611;28;20048;-74
2022/12/24 22:42:04;;;;;;;7.28;2.50;;;;;;;6.69;100.00;100085.81;10420398;28;20095;-74
2022/12/24 22:47:06;;;;;;;8.48;2.67;;;;;;;6.45;100.00;100098.34;10419985;28;20518;-74
2022/12/24 22:52:08;;;;;;;5.45;2.10;;;;;;;6.51;100.00;100098.25;10420368;28;20160;-75
2022/12/24 22:57:10;;;;;;;7.75;2.63;;;;;;;6.45;100.00;100098.34;10420556;28;20029;-74
2022/12/24 23:02:12;;;;;;;8.43;2.58;;;;;;;6.48;100.00;100115.72;10419100;28;20045;-74
2022/12/24 23:07:14;;;;;;;6.80;2.45;;;;;;;6.56;100.00;100125.19;10419456;28;20034;-74
2022/12/24 23:14:55;;;;;;;7.00;2.67;;;;;;;6.88;100.00;100126.44;10400836;28;20064;-74
2022/12/24 23:17:37;;;;;;;10.93;2.70;;;;;;;6.96;99.70;100115.88;10418827;28;20042;-74
2022/12/24 23:22:39;;;;;;;8.38;2.50;;;;;;;6.88;100.00;100138.66;10420552;28;20045;-73
2022/12/24 23:27:41;;;;;;;9.88;2.72;;;;;;;6.97;99.61;100139.38;10417683;28;20403;-74
2022/12/24 23:32:42;;;;;;;7.82;2.22;;;;;;;6.86;99.72;100136.03;10417707;28;20049;-74
2022/12/24 23:37:44;;;;;;;6.60;2.72;;;;;;;6.73;100.00;100143.22;10418621;28;20048;-75
2022/12/24 23:42:46;;;;;;;9.50;2.30;;;;;;;6.58;100.00;100123.38;10423232;28;20037;-75
2022/12/24 23:47:48;;;;;;;9.32;2.42;;;;;;;6.68;100.00;100147.63;10418708;28;20041;-74
2022/12/24 23:52:50;;;;;;;9.50;2.25;;;;;;;6.82;100.00;100150.94;10420161;28;20049;-74
2022/12/24 23:57:52;;;;;;;9.10;2.67;;;;;;;6.99;99.35;100150.66;10418995;28;20477;-74
